sensor_id;sensor_type;location;lat;lon;timestamp;temperature;humidity
19610;DHT22;9952;47.122;-1.638;2023-01-25T00:02:45;3.90;99.90
19610;DHT22;9952;47.122;-1.638;2023-01-25T00:07:26;3.90;99.90
19610;DHT22;9952;47.122;-1.638;2023-01-25T00:12:06;3.90;99.90
19610;DHT22;9952;47.122;-1.638;2023-01-25T00:16:47;3.90;99.90
19610;DHT22;9952;47.122;-1.638;2023-01-25T00:21:28;3.80;99.90
19610;DHT22;9952;47.122;-1.638;2023-01-25T00:26:09;3.70;99.90
19610;DHT22;9952;47.122;-1.638;2023-01-25T00:30:49;3.80;99.90
19610;DHT22;9952;47.122;-1.638;2023-01-25T00:35:31;3.80;99.90
19610;DHT22;9952;47.122;-1.638;2023-01-25T00:40:12;3.80;99.90
19610;DHT22;9952;47.122;-1.638;2023-01-25T00:44:53;3.80;99.90
19610;DHT22;9952;47.122;-1.638;2023-01-25T00:49:34;3.80;99.90
19610;DHT22;9952;47.122;-1.638;2023-01-25T00:54:15;3.80;99.90
19610;DHT22;9952;47.122;-1.638;2023-01-25T00:58:56;3.80;99.90
19610;DHT22;9952;47.122;-1.638;2023-01-25T01:03:37;3.90;99.90
19610;DHT22;9952;47.122;-1.638;2023-01-25T01:08:18;3.80;99.90
19610;DHT22;9952;47.122;-1.638;2023-01-25T01:12:58;3.70;99.90
19610;DHT22;9952;47.122;-1.638;2023-01-25T01:17:39;3.70;99.90
19610;DHT22;9952;47.122;-1.638;2023-01-25T01:22:20;3.80;99.90
19610;DHT22;9952;47.122;-1.638;2023-01-25T01:27:01;3.80;99.90
19610;DHT22;9952;47.122;-1.638;2023-01-25T01:31:42;3.70;99.90
19610;DHT22;9952;47.122;-1.638;2023-01-25T01:36:25;3.70;99.90
19610;DHT22;9952;47.122;-1.638;2023-01-25T01:41:06;3.80;99.90
19610;DHT22;9952;47.122;-1.638;2023-01-25T01:50:28;3.70;99.90
19610;DHT22;9952;47.122;-1.638;2023-01-25T01:55:20;3.70;99.90
19610;DHT22;9952;47.122;-1.638;2023-01-25T02:00:17;3.70;99.90
19610;DHT22;9952;47.122;-1.638;2023-01-25T02:05:00;3.60;99.90
19610;DHT22;9952;47.122;-1.638;2023-01-25T02:09:43;3.70;99.90
19610;DHT22;9952;47.122;-1.638;2023-01-25T02:14:26;3.80;99.90
19610;DHT22;9952;47.122;-1.638;2023-01-25T02:19:12;3.80;99.90
19610;DHT22;9952;47.122;-1.638;2023-01-25T02:28:53;3.70;99.90
19610;DHT22;9952;47.122;-1.638;2023-01-25T02:33:35;3.70;99.90
19610;DHT22;9952;47.122;-1.638;2023-01-25T02:38:17;3.70;99.90
19610;DHT22;9952;47.122;-1.638;2023-01-25T02:42:58;3.70;99.90
19610;DHT22;9952;47.122;-1.638;2023-01-25T02:47:39;3.70;99.90
19610;DHT22;9952;47.122;-1.638;2023-01-25T02:52:20;3.80;99.90
19610;DHT22;9952;47.122;-1.638;2023-01-25T02:57:01;3.80;99.90
19610;DHT22;9952;47.122;-1.638;2023-01-25T03:01:42;3.70;99.90
19610;DHT22;9952;47.122;-1.638;2023-01-25T03:06:23;3.70;99.90
19610;DHT22;9952;47.122;-1.638;2023-01-25T03:11:05;3.80;99.90
19610;DHT22;9952;47.122;-1.638;2023-01-25T03:15:46;3.80;99.90
19610;DHT22;9952;47.122;-1.638;2023-01-25T03:20:27;3.60;99.90
19610;DHT22;9952;47.122;-1.638;2023-01-25T03:25:08;3.80;99.90
19610;DHT22;9952;47.122;-1.638;2023-01-25T03:29:49;3.70;99.90
19610;DHT22;9952;47.122;-1.638;2023-01-25T03:34:29;3.80;99.90
19610;DHT22;9952;47.122;-1.638;2023-01-25T03:39:10;3.80;99.90
19610;DHT22;9952;47.122;-1.638;2023-01-25T03:43:51;3.80;99.90
19610;DHT22;9952;47.122;-1.638;2023-01-25T03:48:32;3.70;99.90
19610;DHT22;9952;47.122;-1.638;2023-01-25T03:53:24;3.80;99.90
19610;DHT22;9952;47.122;-1.638;2023-01-25T03:58:12;3.70;99.90
19610;DHT22;9952;47.122;-1.638;2023-01-25T04:02:52;3.80;99.90
19610;DHT22;9952;47.122;-1.638;2023-01-25T04:07:33;3.80;99.90
19610;DHT22;9952;47.122;-1.638;2023-01-25T04:12:14;3.80;99.90
19610;DHT22;9952;47.122;-1.638;2023-01-25T04:16:55;3.80;99.90
19610;DHT22;9952;47.122;-1.638;2023-01-25T04:21:35;3.70;99.90
19610;DHT22;9952;47.122;-1.638;2023-01-25T04:26:16;3.70;99.90
19610;DHT22;9952;47.122;-1.638;2023-01-25T04:30:57;3.70;99.90
19610;DHT22;9952;47.122;-1.638;2023-01-25T04:35:38;3.60;99.90
19610;DHT22;9952;47.122;-1.638;2023-01-25T04:40:19;3.60;99.90
19610;DHT22;9952;47.122;-1.638;2023-01-25T04:45:00;3.60;99.90
19610;DHT22;9952;47.122;-1.638;2023-01-25T04:49:40;3.70;99.90
19610;DHT22;9952;47.122;-1.638;2023-01-25T04:54:21;3.60;99.90
19610;DHT22;9952;47.122;-1.638;2023-01-25T04:59:02;3.50;99.90
19610;DHT22;9952;47.122;-1.638;2023-01-25T05:03:43;3.60;99.90
19610;DHT22;9952;47.122;-1.638;2023-01-25T05:08:24;3.60;99.90
19610;DHT22;9952;47.122;-1.638;2023-01-25T05:13:05;3.70;99.90
19610;DHT22;9952;47.122;-1.638;2023-01-25T05:17:46;3.70;99.90
19610;DHT22;9952;47.122;-1.638;2023-01-25T05:22:27;3.50;99.90
19610;DHT22;9952;47.122;-1.638;2023-01-25T05:27:08;3.50;99.90
19610;DHT22;9952;47.122;-1.638;2023-01-25T05:31:49;3.50;99.90
19610;DHT22;9952;47.122;-1.638;2023-01-25T05:36:30;3.50;99.90
19610;DHT22;9952;47.122;-1.638;2023-01-25T05:41:11;3.50;99.90
19610;DHT22;9952;47.122;-1.638;2023-01-25T05:45:52;3.50;99.90
19610;DHT22;9952;47.122;-1.638;2023-01-25T05:50:33;3.50;99.90
19610;DHT22;9952;47.122;-1.638;2023-01-25T05:55:14;3.50;99.90
19610;DHT22;9952;47.122;-1.638;2023-01-25T05:59:54;3.50;99.90
19610;DHT22;9952;47.122;-1.638;2023-01-25T06:04:35;3.40;99.90
19610;DHT22;9952;47.122;-1.638;2023-01-25T06:09:16;3.50;99.90
19610;DHT22;9952;47.122;-1.638;2023-01-25T06:13:57;3.40;99.90
19610;DHT22;9952;47.122;-1.638;2023-01-25T06:18:38;3.40;99.90
19610;DHT22;9952;47.122;-1.638;2023-01-25T06:23:18;3.40;99.90
19610;DHT22;9952;47.122;-1.638;2023-01-25T06:27:59;3.40;99.90
19610;DHT22;9952;47.122;-1.638;2023-01-25T06:32:40;3.40;99.90
19610;DHT22;9952;47.122;-1.638;2023-01-25T06:37:21;3.40;99.90
19610;DHT22;9952;47.122;-1.638;2023-01-25T06:42:02;3.40;99.90
19610;DHT22;9952;47.122;-1.638;2023-01-25T06:46:43;3.40;99.90
19610;DHT22;9952;47.122;-1.638;2023-01-25T06:51:23;3.40;99.90
19610;DHT22;9952;47.122;-1.638;2023-01-25T06:56:07;3.40;99.90
19610;DHT22;9952;47.122;-1.638;2023-01-25T07:00:48;3.50;99.90
19610;DHT22;9952;47.122;-1.638;2023-01-25T07:05:29;3.40;99.90
19610;DHT22;9952;47.122;-1.638;2023-01-25T07:10:10;3.40;99.90
19610;DHT22;9952;47.122;-1.638;2023-01-25T07:14:51;3.50;99.90
19610;DHT22;9952;47.122;-1.638;2023-01-25T07:19:31;3.50;99.90
19610;DHT22;9952;47.122;-1.638;2023-01-25T07:24:14;3.50;99.90
19610;DHT22;9952;47.122;-1.638;2023-01-25T07:28:57;3.50;99.90
19610;DHT22;9952;47.122;-1.638;2023-01-25T07:33:37;3.50;99.90
19610;DHT22;9952;47.122;-1.638;2023-01-25T07:38:18;3.40;99.90
19610;DHT22;9952;47.122;-1.638;2023-01-25T07:42:59;3.40;99.90
19610;DHT22;9952;47.122;-1.638;2023-01-25T07:47:40;3.40;99.90
19610;DHT22;9952;47.122;-1.638;2023-01-25T07:52:21;3.30;99.90
19610;DHT22;9952;47.122;-1.638;2023-01-25T07:57:01;3.30;99.90
19610;DHT22;9952;47.122;-1.638;2023-01-25T08:01:42;3.30;99.90
19610;DHT22;9952;47.122;-1.638;2023-01-25T08:06:26;3.40;99.90
19610;DHT22;9952;47.122;-1.638;2023-01-25T08:11:16;3.40;99.90
19610;DHT22;9952;47.122;-1.638;2023-01-25T08:15:57;3.40;99.90
19610;DHT22;9952;47.122;-1.638;2023-01-25T08:20:38;3.40;99.90
19610;DHT22;9952;47.122;-1.638;2023-01-25T08:25:19;3.40;99.90
19610;DHT22;9952;47.122;-1.638;2023-01-25T08:30:00;3.30;99.90
19610;DHT22;9952;47.122;-1.638;2023-01-25T08:34:41;3.40;99.90
19610;DHT22;9952;47.122;-1.638;2023-01-25T08:39:21;3.30;99.90
19610;DHT22;9952;47.122;-1.638;2023-01-25T08:44:03;3.30;99.90
19610;DHT22;9952;47.122;-1.638;2023-01-25T08:48:44;3.30;99.90
19610;DHT22;9952;47.122;-1.638;2023-01-25T08:53:30;3.40;99.90
19610;DHT22;9952;47.122;-1.638;2023-01-25T08:58:12;3.40;99.90
19610;DHT22;9952;47.122;-1.638;2023-01-25T09:02:53;3.30;99.90
19610;DHT22;9952;47.122;-1.638;2023-01-25T09:07:34;3.30;99.90
19610;DHT22;9952;47.122;-1.638;2023-01-25T09:12:17;3.30;99.90
19610;DHT22;9952;47.122;-1.638;2023-01-25T09:16:58;3.50;99.90
19610;DHT22;9952;47.122;-1.638;2023-01-25T09:21:39;3.50;99.90
19610;DHT22;9952;47.122;-1.638;2023-01-25T09:26:20;3.60;99.90
19610;DHT22;9952;47.122;-1.638;2023-01-25T09:31:06;3.50;99.90
19610;DHT22;9952;47.122;-1.638;2023-01-25T09:35:50;3.50;99.90
19610;DHT22;9952;47.122;-1.638;2023-01-25T09:40:37;3.40;99.90
19610;DHT22;9952;47.122;-1.638;2023-01-25T09:45:28;3.40;99.90
19610;DHT22;9952;47.122;-1.638;2023-01-25T09:50:32;3.40;99.90
19610;DHT22;9952;47.122;-1.638;2023-01-25T09:55:15;3.50;99.90
19610;DHT22;9952;47.122;-1.638;2023-01-25T09:59:59;3.50;99.90
19610;DHT22;9952;47.122;-1.638;2023-01-25T10:04:42;3.50;99.90
19610;DHT22;9952;47.122;-1.638;2023-01-25T10:14:28;3.60;99.90
19610;DHT22;9952;47.122;-1.638;2023-01-25T10:24:43;3.70;99.90
19610;DHT22;9952;47.122;-1.638;2023-01-25T10:29:34;3.70;99.90
19610;DHT22;9952;47.122;-1.638;2023-01-25T10:34:19;3.80;99.90
19610;DHT22;9952;47.122;-1.638;2023-01-25T10:39:00;3.60;99.90
19610;DHT22;9952;47.122;-1.638;2023-01-25T10:43:47;3.60;99.90
19610;DHT22;9952;47.122;-1.638;2023-01-25T10:48:35;3.50;99.90
19610;DHT22;9952;47.122;-1.638;2023-01-25T10:58:32;3.70;99.90
19610;DHT22;9952;47.122;-1.638;2023-01-25T11:03:20;3.60;99.90
19610;DHT22;9952;47.122;-1.638;2023-01-25T11:08:23;3.60;99.90
19610;DHT22;9952;47.122;-1.638;2023-01-25T11:13:18;3.70;99.90
19610;DHT22;9952;47.122;-1.638;2023-01-25T11:18:10;3.70;99.90
19610;DHT22;9952;47.122;-1.638;2023-01-25T11:22:54;3.90;99.90
19610;DHT22;9952;47.122;-1.638;2023-01-25T11:27:35;3.80;99.90
19610;DHT22;9952;47.122;-1.638;2023-01-25T11:32:20;3.90;99.90
19610;DHT22;9952;47.122;-1.638;2023-01-25T11:37:16;4.00;99.90
19610;DHT22;9952;47.122;-1.638;2023-01-25T11:42:14;3.90;99.90
19610;DHT22;9952;47.122;-1.638;2023-01-25T11:57:19;3.70;99.90
19610;DHT22;9952;47.122;-1.638;2023-01-25T12:13:01;3.90;99.90
19610;DHT22;9952;47.122;-1.638;2023-01-25T12:23:13;3.80;99.90
19610;DHT22;9952;47.122;-1.638;2023-01-25T12:32:57;3.80;99.90
19610;DHT22;9952;47.122;-1.638;2023-01-25T12:37:40;3.80;99.90
19610;DHT22;9952;47.122;-1.638;2023-01-25T12:42:36;3.70;99.90
19610;DHT22;9952;47.122;-1.638;2023-01-25T12:52:32;3.70;99.90
19610;DHT22;9952;47.122;-1.638;2023-01-25T12:57:31;3.70;99.90
19610;DHT22;9952;47.122;-1.638;2023-01-25T13:07:11;3.80;99.90
19610;DHT22;9952;47.122;-1.638;2023-01-25T13:11:55;3.70;99.90
19610;DHT22;9952;47.122;-1.638;2023-01-25T13:16:39;3.70;99.90
19610;DHT22;9952;47.122;-1.638;2023-01-25T13:31:03;3.80;99.90
19610;DHT22;9952;47.122;-1.638;2023-01-25T13:35:44;3.70;99.90
19610;DHT22;9952;47.122;-1.638;2023-01-25T13:40:31;3.60;99.90
19610;DHT22;9952;47.122;-1.638;2023-01-25T13:45:17;3.70;99.90
19610;DHT22;9952;47.122;-1.638;2023-01-25T13:50:18;3.70;99.90
19610;DHT22;9952;47.122;-1.638;2023-01-25T13:55:14;3.80;99.90
19610;DHT22;9952;47.122;-1.638;2023-01-25T14:00:06;3.80;99.90
19610;DHT22;9952;47.122;-1.638;2023-01-25T14:04:50;3.60;99.90
19610;DHT22;9952;47.122;-1.638;2023-01-25T14:09:33;3.80;99.90
19610;DHT22;9952;47.122;-1.638;2023-01-25T14:14:29;3.70;99.90
19610;DHT22;9952;47.122;-1.638;2023-01-25T14:24:08;3.80;99.90
19610;DHT22;9952;47.122;-1.638;2023-01-25T14:28:53;3.70;99.90
19610;DHT22;9952;47.122;-1.638;2023-01-25T14:33:35;3.60;99.90
19610;DHT22;9952;47.122;-1.638;2023-01-25T14:38:34;3.50;99.90
19610;DHT22;9952;47.122;-1.638;2023-01-25T14:43:16;3.70;99.90
19610;DHT22;9952;47.122;-1.638;2023-01-25T14:47:57;3.70;99.90
19610;DHT22;9952;47.122;-1.638;2023-01-25T14:52:38;3.50;99.90
19610;DHT22;9952;47.122;-1.638;2023-01-25T15:02:40;3.60;99.90
19610;DHT22;9952;47.122;-1.638;2023-01-25T15:12:28;3.50;99.90
19610;DHT22;9952;47.122;-1.638;2023-01-25T15:17:40;3.50;99.90
19610;DHT22;9952;47.122;-1.638;2023-01-25T15:22:22;3.40;99.90
19610;DHT22;9952;47.122;-1.638;2023-01-25T15:27:04;3.30;99.90
19610;DHT22;9952;47.122;-1.638;2023-01-25T15:31:45;3.30;99.90
19610;DHT22;9952;47.122;-1.638;2023-01-25T15:36:27;3.20;99.90
19610;DHT22;9952;47.122;-1.638;2023-01-25T15:41:08;3.20;99.90
19610;DHT22;9952;47.122;-1.638;2023-01-25T15:45:50;3.20;99.90
19610;DHT22;9952;47.122;-1.638;2023-01-25T15:50:31;3.20;99.90
19610;DHT22;9952;47.122;-1.638;2023-01-25T15:55:12;3.10;99.90
19610;DHT22;9952;47.122;-1.638;2023-01-25T15:59:54;3.10;99.90
19610;DHT22;9952;47.122;-1.638;2023-01-25T16:04:35;3.00;99.90
19610;DHT22;9952;47.122;-1.638;2023-01-25T16:09:22;2.90;99.90
19610;DHT22;9952;47.122;-1.638;2023-01-25T16:14:03;2.80;99.90
19610;DHT22;9952;47.122;-1.638;2023-01-25T16:18:44;2.70;99.90
19610;DHT22;9952;47.122;-1.638;2023-01-25T16:23:25;2.60;99.90
19610;DHT22;9952;47.122;-1.638;2023-01-25T16:28:08;2.40;99.90
19610;DHT22;9952;47.122;-1.638;2023-01-25T16:32:52;2.40;99.90
19610;DHT22;9952;47.122;-1.638;2023-01-25T16:37:33;2.50;99.90
19610;DHT22;9952;47.122;-1.638;2023-01-25T16:42:14;2.50;99.90
19610;DHT22;9952;47.122;-1.638;2023-01-25T16:46:55;2.50;99.90
19610;DHT22;9952;47.122;-1.638;2023-01-25T16:51:36;2.60;99.90
19610;DHT22;9952;47.122;-1.638;2023-01-25T16:56:19;2.70;99.90
19610;DHT22;9952;47.122;-1.638;2023-01-25T17:01:07;2.60;99.90
19610;DHT22;9952;47.122;-1.638;2023-01-25T17:05:48;2.70;99.90
19610;DHT22;9952;47.122;-1.638;2023-01-25T17:10:29;2.60;99.90
19610;DHT22;9952;47.122;-1.638;2023-01-25T17:15:14;2.70;99.90
19610;DHT22;9952;47.122;-1.638;2023-01-25T17:19:57;2.70;99.90
19610;DHT22;9952;47.122;-1.638;2023-01-25T17:24:38;2.60;99.90
19610;DHT22;9952;47.122;-1.638;2023-01-25T17:29:18;2.70;99.90
19610;DHT22;9952;47.122;-1.638;2023-01-25T17:34:01;2.70;99.90
19610;DHT22;9952;47.122;-1.638;2023-01-25T17:38:43;2.70;99.90
19610;DHT22;9952;47.122;-1.638;2023-01-25T17:43:23;2.70;99.90
19610;DHT22;9952;47.122;-1.638;2023-01-25T17:48:06;2.70;99.90
19610;DHT22;9952;47.122;-1.638;2023-01-25T17:52:48;2.80;99.90
19610;DHT22;9952;47.122;-1.638;2023-01-25T17:57:29;2.90;99.90
19610;DHT22;9952;47.122;-1.638;2023-01-25T18:02:10;2.90;99.90
19610;DHT22;9952;47.122;-1.638;2023-01-25T18:06:51;2.80;99.90
19610;DHT22;9952;47.122;-1.638;2023-01-25T18:11:33;2.80;99.90
19610;DHT22;9952;47.122;-1.638;2023-01-25T18:16:16;2.90;99.90
19610;DHT22;9952;47.122;-1.638;2023-01-25T18:25:45;2.90;99.90
19610;DHT22;9952;47.122;-1.638;2023-01-25T18:30:38;2.90;99.90
19610;DHT22;9952;47.122;-1.638;2023-01-25T18:35:21;2.90;99.90
19610;DHT22;9952;47.122;-1.638;2023-01-25T18:40:04;2.90;99.90
19610;DHT22;9952;47.122;-1.638;2023-01-25T18:44:47;2.90;99.90
19610;DHT22;9952;47.122;-1.638;2023-01-25T18:49:28;2.80;99.90
19610;DHT22;9952;47.122;-1.638;2023-01-25T18:54:09;2.80;99.90
19610;DHT22;9952;47.122;-1.638;2023-01-25T18:58:49;2.80;99.90
19610;DHT22;9952;47.122;-1.638;2023-01-25T19:03:32;2.80;99.90
19610;DHT22;9952;47.122;-1.638;2023-01-25T19:08:12;2.80;99.90
19610;DHT22;9952;47.122;-1.638;2023-01-25T19:12:54;2.80;99.90
19610;DHT22;9952;47.122;-1.638;2023-01-25T19:17:35;2.80;99.90
19610;DHT22;9952;47.122;-1.638;2023-01-25T19:22:16;2.80;99.90
19610;DHT22;9952;47.122;-1.638;2023-01-25T19:26:56;2.90;99.90
19610;DHT22;9952;47.122;-1.638;2023-01-25T19:31:38;2.80;99.90
19610;DHT22;9952;47.122;-1.638;2023-01-25T19:36:19;2.90;99.90
19610;DHT22;9952;47.122;-1.638;2023-01-25T19:41:10;2.90;99.90
19610;DHT22;9952;47.122;-1.638;2023-01-25T19:45:52;2.90;99.90
19610;DHT22;9952;47.122;-1.638;2023-01-25T19:50:33;2.80;99.90
19610;DHT22;9952;47.122;-1.638;2023-01-25T19:55:13;2.90;99.90
19610;DHT22;9952;47.122;-1.638;2023-01-25T19:59:54;2.90;99.90
19610;DHT22;9952;47.122;-1.638;2023-01-25T20:04:35;2.90;99.90
19610;DHT22;9952;47.122;-1.638;2023-01-25T20:09:17;2.90;99.90
19610;DHT22;9952;47.122;-1.638;2023-01-25T20:14:03;3.00;99.90
19610;DHT22;9952;47.122;-1.638;2023-01-25T20:18:46;3.00;99.90
19610;DHT22;9952;47.122;-1.638;2023-01-25T20:23:30;3.00;99.90
19610;DHT22;9952;47.122;-1.638;2023-01-25T20:28:12;3.00;99.90
19610;DHT22;9952;47.122;-1.638;2023-01-25T20:32:53;3.10;99.90
19610;DHT22;9952;47.122;-1.638;2023-01-25T20:37:33;3.10;99.90
19610;DHT22;9952;47.122;-1.638;2023-01-25T20:42:14;3.00;99.90
19610;DHT22;9952;47.122;-1.638;2023-01-25T20:46:55;3.10;99.90
19610;DHT22;9952;47.122;-1.638;2023-01-25T20:51:36;3.10;99.90
19610;DHT22;9952;47.122;-1.638;2023-01-25T20:56:18;3.10;99.90
19610;DHT22;9952;47.122;-1.638;2023-01-25T21:00:59;3.10;99.90
19610;DHT22;9952;47.122;-1.638;2023-01-25T21:05:48;3.20;99.90
19610;DHT22;9952;47.122;-1.638;2023-01-25T21:10:29;3.20;99.90
19610;DHT22;9952;47.122;-1.638;2023-01-25T21:15:11;3.10;99.90
19610;DHT22;9952;47.122;-1.638;2023-01-25T21:19:52;3.20;99.90
19610;DHT22;9952;47.122;-1.638;2023-01-25T21:24:32;3.20;99.90
19610;DHT22;9952;47.122;-1.638;2023-01-25T21:29:13;3.20;99.90
19610;DHT22;9952;47.122;-1.638;2023-01-25T21:33:55;3.20;99.90
19610;DHT22;9952;47.122;-1.638;2023-01-25T21:38:37;3.10;99.90
19610;DHT22;9952;47.122;-1.638;2023-01-25T21:43:18;3.10;99.90
19610;DHT22;9952;47.122;-1.638;2023-01-25T21:47:59;3.10;99.90
19610;DHT22;9952;47.122;-1.638;2023-01-25T21:52:39;3.20;99.90
19610;DHT22;9952;47.122;-1.638;2023-01-25T21:57:20;3.20;99.90
19610;DHT22;9952;47.122;-1.638;2023-01-25T22:02:02;3.10;99.90
19610;DHT22;9952;47.122;-1.638;2023-01-25T22:06:44;3.10;99.90
19610;DHT22;9952;47.122;-1.638;2023-01-25T22:11:25;3.10;99.90
19610;DHT22;9952;47.122;-1.638;2023-01-25T22:16:07;3.10;99.90
19610;DHT22;9952;47.122;-1.638;2023-01-25T22:20:55;3.10;99.90
19610;DHT22;9952;47.122;-1.638;2023-01-25T22:25:36;3.10;99.90
19610;DHT22;9952;47.122;-1.638;2023-01-25T22:30:17;3.10;99.90
19610;DHT22;9952;47.122;-1.638;2023-01-25T22:34:58;3.10;99.90
19610;DHT22;9952;47.122;-1.638;2023-01-25T22:39:38;3.10;99.90
19610;DHT22;9952;47.122;-1.638;2023-01-25T22:44:19;3.10;99.90
19610;DHT22;9952;47.122;-1.638;2023-01-25T22:49:00;3.10;99.90
19610;DHT22;9952;47.122;-1.638;2023-01-25T22:53:41;3.00;99.90
19610;DHT22;9952;47.122;-1.638;2023-01-25T22:58:22;3.10;99.90
19610;DHT22;9952;47.122;-1.638;2023-01-25T23:03:03;3.00;99.90
19610;DHT22;9952;47.122;-1.638;2023-01-25T23:07:44;3.10;99.90
19610;DHT22;9952;47.122;-1.638;2023-01-25T23:12:25;3.10;99.90
19610;DHT22;9952;47.122;-1.638;2023-01-25T23:17:05;3.10;99.90
19610;DHT22;9952;47.122;-1.638;2023-01-25T23:22:04;3.10;99.90
19610;DHT22;9952;47.122;-1.638;2023-01-25T23:26:46;3.10;99.90
19610;DHT22;9952;47.122;-1.638;2023-01-25T23:31:26;3.10;99.90
19610;DHT22;9952;47.122;-1.638;2023-01-25T23:36:18;3.10;99.90
19610;DHT22;9952;47.122;-1.638;2023-01-25T23:41:00;3.10;99.90
19610;DHT22;9952;47.122;-1.638;2023-01-25T23:45:41;3.10;99.90
19610;DHT22;9952;47.122;-1.638;2023-01-25T23:50:23;3.10;99.90
19610;DHT22;9952;47.122;-1.638;2023-01-25T23:55:05;3.20;99.90
19610;DHT22;9952;47.122;-1.638;2023-01-25T23:59:46;3.20;99.90
